Tiempo atmosférico en la estación meteorológica de Cuenca, Cuenca (945 m.)



Fecha
DESCASC
Temp. máxima en grados centígrados (hora)
DESCASC
Temp. mínima en grados centígrados (hora)
DESCASC
Temp. media en grados centígrados
DESCASC
Racha de viento máxima en m/sg (hora)
DESCASC
Velocidad máxima media en intervalos de 10 minutos(hora)
DESCASC
Precipitaciones diarias en mm
DESCASC
Precipitaciones de 00:00 a 06:00 en mm
DESCASC
Precipitaciones de 06:00 a 12:00 en mm
DESCASC
Precipitaciones de 12:00 a 18:00 en mm
DESCASC
Precipitaciones de 18:00 a 24:00 en mm
DESCASC
02-04-2020 14.7 (14:20) 1.9 (07:50) 8.3 7.78 (15:20) 3.89 (15:20) 2.2 0 0 0.8 1.4
01-04-2020 13.8 (17:30) 6.2 (08:10) 10 9.72 (00:20) 4.44 (15:10) 6.8 3.6 2.4 0.4 0.4
31-03-2020 11.3 (18:10) 2.3 (00:00) 6.8 14.17 (09:00) 6.11 (05:00) 9.4 3.4 2.6 1.4 2
30-03-2020 9.1 (00:00) 2.8 (00:00) 6 7.5 (06:50) 4.17 (07:10) 6.6 0 0 0.2 6.4
29-03-2020 17.8 (18:00) 0.5 (00:00) 9.1 7.78 (15:50) 3.61 (16:30) 0 0 0 0 0
28-03-2020 13.6 (16:30) -0.8 (-00:0) 6.4 5.28 (00:30) 3.06 (00:40) 0.2 0 0 0 0.2
27-03-2020 8.3 (15:50) 1 (00:00) 4.7 8.89 (06:40) 5 (06:30) 2 0 2 0 0
26-03-2020 13.4 (17:20) 3.9 (00:00) 8.6 10 (10:20) 3.33 (11:00) 0.2 0.2 0 0 0
25-03-2020 13.9 (15:50) 4.1 (00:00) 9 7.78 (16:30) 3.06 (15:10) 1.4 0 0 0 1.4
24-03-2020 12.5 (17:00) 6.1 (00:00) 9.3 7.78 (10:30) 3.89 (17:10) 0.2 0 0 0.2 0
23-03-2020 13.4 (13:40) 6.5 (00:00) 9.9 8.61 (12:20) 4.17 (14:10) 6 2.6 2 1.4 0
22-03-2020 11.4 (16:00) 4 (07:00) 7.7 6.94 (14:50) 3.33 (18:30) 7.2 0 0 5.4 1.8
21-03-2020 9.5 (13:00) 5.2 (00:00) 7.3 8.33 (01:00) 4.17 (10:30) 4.8 0 0 0 4.8
20-03-2020 10.7 (15:00) 7.1 (00:00) 8.9 7.78 (04:00) 3.89 (14:40) 0 0 0 0 0
19-03-2020 14.6 (15:40) 4.2 (00:00) 9.4 8.33 (16:00) 4.17 (15:50) 0 0 0 0 0
18-03-2020 17 (16:00) 8 (00:00) 12.5 7.5 (14:10) 3.33 (13:20) 0 0 0 0 0
17-03-2020 11.9 (14:50) 2.6 (00:00) 7.2 10.56 (12:10) 5.56 (07:30) 2.6 0.8 0 1.8 0
16-03-2020 9.2 (00:50) 2.4 (00:00) 5.8 10.28 (05:40) 5.28 (05:40) 27.2 9.8 13.4 0.4 3.6
15-03-2020 18.3 (13:50) 7.6 (00:00) 12.9 8.33 (17:30) 4.17 (18:50) 13.6 0 0 7 6.6
14-03-2020 21.9 (15:20) 6.5 (00:00) 14.2 6.39 (17:00) 3.06 (15:00) 0.2 0 0 0 0.2
13-03-2020 21.5 (15:00) 9 (07:40) 15.3 6.94 (16:10) 3.61 (13:50) 0 0 0 0 0
12-03-2020 26.4 (15:30) 7.2 (00:00) 16.8 6.39 (14:30) 3.61 (14:30) 0 0 0 0 0
11-03-2020 25.9 (16:20) 5.1 (00:00) 15.5 6.94 (16:00) 3.61 (15:50) 0 0 0 0 0
10-03-2020 22 (16:10) 4.9 (00:00) 13.5 7.22 (15:30) 3.89 (13:30) 0 0 0 0 0
09-03-2020 16.4 (15:50) 3.6 (00:00) 10 11.11 (11:40) 4.72 (11:40) 0 0 0 0 0
08-03-2020 17.9 (16:00) 0.1 (00:00) 9 6.94 (00:20) 3.33 (00:20) 0 0 0 0 0
07-03-2020 15.1 (16:30) 0.3 (00:00) 7.7 9.72 (01:00) 3.33 (00:50) 0 0 0 0 0
06-03-2020 10.8 (14:30) 3.7 (00:00) 7.3 15 (12:00) 6.11 (14:10) 0 0 0 0 0
05-03-2020 13.2 (16:10) 7 (00:00) 10.1 13.06 (09:50) 5 (12:10) 1 0 0.2 0.8 0

Gráficas

Temp. máximas Temp. mínimas Temp. medias Precipitaciones Rachas de viento máximas Velocidades máximas media en intervalos de 10 minutos

Datos horarios

Fecha y hora oficial Temperatura (ºC) Velocidad del viento (km/h) Dirección del viento Racha (km/h) Dirección de racha Precipitación (mm) Presión (hPa) Tendencia (hPa) Humedad (%)
2020-04-03 23:00:00 8.7 2 Norte 8 Norte 0 907.8 1.4 54
2020-04-03 22:00:00 10.5 0 Calma 7 Norte 0 907.3 1.1 48
2020-04-03 21:00:00 12.7 3 Noroeste 11 Noroeste 0 906.7 0.4 37
2020-04-03 20:00:00 14.5 6 Noroeste 15 Noroeste 0 906.4 0.2 28
2020-04-03 19:00:00 16.7 5 Noroeste 16 Oeste 0 906.2 -0.3 23
2020-04-03 18:00:00 16.8 7 Noroeste 21 Noroeste 0 906.3 -0.6 20
2020-04-03 17:00:00 16.6 8 Noroeste 23 Noroeste 0 906.2 -0.9 24
2020-04-03 16:00:00 15.8 10 Noroeste 24 Noroeste 0 906.5 -1.1 28
2020-04-03 15:00:00 14.9 8 Noroeste 26 Oeste 0 906.9 -0.9 35
2020-04-03 14:00:00 13.7 6 Oeste 19 Noroeste 0 907.1 -0.4 44
2020-04-03 13:00:00 12 6 Noroeste 15 Noroeste 0 907.6 0.4 45
2020-04-03 12:00:00 10.3 4 Noroeste 11 Sudoeste 0 907.8 1 57
2020-04-03 11:00:00 7.9 3 Sudoeste 11 Noroeste 0 907.5 1.2 67
2020-04-03 10:00:00 4.9 5 Noroeste 8 Noroeste 0 907.2 1.4 80
2020-04-03 09:00:00 1.7 0 Calma 6 Norte 0 906.8 1.4 92
2020-04-03 08:00:00 1.7 3 Sudoeste 5 Oeste 0 906.3 1 92
2020-04-03 07:00:00 2.2 0 Calma 6 Nordeste 0 905.8 0.4 90
2020-04-03 06:00:00 2.9 3 Norte 6 Norte 0 905.4 0.1 90
2020-04-03 05:00:00 3.7 3 Norte 8 Norte 0 905.3 -0.2 90
2020-04-03 04:00:00 4.4 2 Nordeste 7 Nordeste 0 905.4 -0.2 88
2020-04-03 03:00:00 5.5 3 Nordeste 7 Norte 0 905.3 -0.4 86
2020-04-03 02:00:00 6.8 0 Calma 6 Nordeste 0 905.5 0.2 81
2020-04-03 01:00:00 7.8 5 Nordeste 10 Norte 0 905.6 0.9 76
2020-04-03 00:00:00 8.2 3 Norte 12 Norte 0 905.7 1.9 76
2020-04-02 23:00:00 8.6 3 Norte 19 Norte 0 905.3 2.3 75
2020-04-02 22:00:00 8.8 3 Noroeste 11 Norte 0 904.7 2.1 76
2020-04-02 21:00:00 9.2 3 Nordeste 14 Norte 0 903.8 1.7 76
2020-04-02 20:00:00 9.8 2 Noroeste 8 Norte 0.2 903 1.4 81
2020-04-02 19:00:00 9.2 3 Nordeste 22 Nordeste 1.2 902.6 0.9 81
2020-04-02 18:00:00 10.9 5 Norte 26 Oeste 0 902.1 0 72
2020-04-02 17:00:00 11.8 4 Nordeste 28 Norte 0.8 901.6 -0.3 59
2020-04-02 16:00:00 12.4 9 Sudeste 28 Sudeste 0 901.7 -0.8 60
2020-04-02 15:00:00 12.2 8 Este 25 Nordeste 0 902.1 -0.6 55
2020-04-02 14:00:00 12.9 7 Norte 22 Nordeste 0 901.9 -0.8 53
2020-04-02 13:00:00 12.7 6 Norte 18 Nordeste 0 902.5 0.1 54
2020-04-02 12:00:00 11.8 4 Norte 10 Norte 0 902.7 0.7 60
2020-04-02 11:00:00 8.2 3 Noroeste 9 Noroeste 0 902.7 1 80
2020-04-02 10:00:00 5.9 3 Norte 8 Norte 0 902.4 0.8 82
2020-04-02 09:00:00 2 3 Sudoeste 4 Sudoeste 0 902 0.6 94
2020-04-02 08:00:00 1.9 0 Calma 7 Norte 0 901.7 0.1 94
2020-04-02 07:00:00 2.4 2 Norte 5 Oeste 0 901.6 -0.5 93
2020-04-02 06:00:00 2.9 0 Calma 4 Norte 0 901.4 -1.1 93
2020-04-02 05:00:00 3.3 0 Calma 4 Norte 0 901.6 -1.4 93
2020-04-02 04:00:00 4 3 Nordeste 6 Norte 0 902.1 -1 90
2020-04-02 03:00:00 4.9 2 Norte 8 Sudeste 0 902.5 -1.1 87
2020-04-02 02:00:00 5.8 3 Sur 19 Nordeste 0 903 -0.1 83
2020-04-02 01:00:00 6.7 10 Nordeste 18 Nordeste 0 903.1 0.2 76
2020-04-02 00:00:00 6.8 7 Nordeste 19 Norte 0.4 903.6 1.5 82
2020-04-01 23:00:00 8.1 5 Norte 14 Nordeste 0 903.1 1.3 83
2020-04-01 22:00:00 8.8 9 Nordeste 17 Nordeste 0 902.9 1.2 77
2020-04-01 21:00:00 9.5 9 Nordeste 18 Norte 0 902.1 0.5 75
2020-04-01 20:00:00 11.7 5 Noroeste 21 Sudoeste 0 901.8 0 60
2020-04-01 19:00:00 13.2 8 Oeste 25 Oeste 0 901.7 -0.2 52
2020-04-01 18:00:00 13.7 11 Oeste 21 Sudoeste 0 901.6 -0.8 53
2020-04-01 17:00:00 12.2 10 Sudoeste 26 Oeste 0.2 901.8 -0.8 62
2020-04-01 16:00:00 13.2 9 Oeste 30 Sudoeste 0 901.9 -1.2 56
2020-04-01 15:00:00 11.5 11 Oeste 31 Oeste 0 902.4 -0.8 68
2020-04-01 14:00:00 11.1 10 Oeste 22 Oeste 0.2 902.6 -0.5 70
2020-04-01 13:00:00 10 4 Sudeste 11 Sudeste 0 903.1 0.1 73
2020-04-01 12:00:00 10.6 4 Sur 10 Sur 0 903.2 0.7 77
2020-04-01 11:00:00 9.1 5 Sudoeste 10 Sur 0 903.1 1.2 85
2020-04-01 10:00:00 7.3 2 Sur 7 Sudoeste 0 903 1.3 95
2020-04-01 09:00:00 6.5 2 Sudeste 7 Noroeste 0.2 902.5 0.9 96
2020-04-01 08:00:00 6.3 3 Norte 10 Noroeste 2 901.9 0.2 96
2020-04-01 07:00:00 6.7 5 Noroeste 12 Oeste 0.2 901.7 -0.1 94
2020-04-01 06:00:00 7.5 5 Sudoeste 18 Sudeste 0 901.6 -0.5 95
2020-04-01 05:00:00 7.6 8 Sudeste 21 Sudeste 0 901.7 -0.6 92
2020-04-01 04:00:00 7.6 10 Sudeste 19 Sudeste 0.2 901.8 -0.4 94
2020-04-01 03:00:00 7.2 10 Sudeste 20 Sudeste 1 902.1 0.6 90
2020-04-01 02:00:00 7.4 11 Sudeste 25 Sur 2.4 902.3 0.7 94
2020-04-01 01:00:00 7.9 9 Sur 35 Sudeste 0 902.2 0.7 91
2020-04-01 00:00:00 8.2 12 Sudeste 30 Sudeste 0 901.5 0.2 82
2020-03-31 23:00:00 8.1 8 Sudeste 24 Sudeste 0.2 901.6 1.6 86
2020-03-31 22:00:00 8 7 Sudeste 25 Sudeste 1.4 901.5 1.9 91
2020-03-31 21:00:00 8.7 12 Sudeste 26 Sudeste 0.4 901.3 1.8 88
2020-03-31 20:00:00 9.3 8 Sudeste 29 Sudeste 0 900 0.6 82
2020-03-31 19:00:00 10 11 Sudeste 34 Sudeste 0 899.6 -0.1 79
2020-03-31 18:00:00 11 16 Sudeste 35 Sudeste 0.2 899.5 -0.1 76
2020-03-31 17:00:00 10 15 Sudeste 31 Sudeste 0.2 899.4 -0.3 80
2020-03-31 16:00:00 9.1 12 Sudeste 33 Sudeste 0.4 899.7 0 87
2020-03-31 15:00:00 9.5 20 Sudeste 39 Sudeste 0 899.6 0.4 80
2020-03-31 14:00:00 7.7 18 Sudeste 39 Este 0.6 899.7 0.7 89
2020-03-31 13:00:00 6.9 17 Sudeste 47 Sudeste 0 899.7 1.4 88
2020-03-31 12:00:00 5.9 15 Sudeste 44 Sudeste 0.6 899.2 1.2 89
2020-03-31 11:00:00 6 19 Sudeste 41 Sudeste 0.2 899 0.9 86
2020-03-31 10:00:00 5.7 14 Sudeste 36 Sudeste 0.2 898.3 0.6 87
2020-03-31 09:00:00 5 14 Sudeste 51 Sudeste 0.6 898 0.2 87
2020-03-31 08:00:00 4.7 16 Sudeste 37 Sur 0.8 898.1 -0.1 87
2020-03-31 07:00:00 5 15 Sudeste 43 Sur 0.2 897.7 -0.7 85
2020-03-31 06:00:00 5.2 16 Sudeste 43 Sudeste 0 897.8 -1.7 83
2020-03-31 05:00:00 4.4 22 Sudeste 50 Sudeste 0 898.2 -1.6 83
2020-03-31 04:00:00 4.5 21 Sudeste 46 Sudeste 0.2 898.4 -2.3 84
2020-03-31 03:00:00 2.8 12 Sur 31 Sur 0 899.5 -1.7 90
2020-03-31 02:00:00 3.2 8 Sudeste 22 Sudeste 1 899.8 -1.4 89
2020-03-31 01:00:00 2.3 3 Oeste 14 Sudeste 2.2 900.7 -0.3 92
2020-03-31 00:00:00 2.8 4 Sudoeste 13 Oeste 1.4 901.2 -0.1 92
2020-03-30 23:00:00 3.7 5 Oeste 13 Nordeste 0.4 901.2 -0.3 91
2020-03-30 22:00:00 3.7 2 Norte 9 Este 0 901 -0.5 87
2020-03-30 21:00:00 3.9 3 Este 6 Este 0.4 901.3 -0.3 86
2020-03-30 20:00:00 4.1 3 Sur 13 Noroeste 2.8 901.5 0.1 92
2020-03-30 19:00:00 4.4 5 Noroeste 14 Oeste 1.4 901.5 -0.6 91
2020-03-30 18:00:00 6.1 3 Norte 15 Nordeste 0 901.6 -1.1 84
2020-03-30 17:00:00 6.3 7 Norte 19 Norte 0 901.4 -1.5 82
2020-03-30 16:00:00 6.6 5 Norte 18 Norte 0 902.1 -1.3 84
2020-03-30 15:00:00 6.5 4 Norte 15 Nordeste 0.2 902.7 -0.9 85
2020-03-30 14:00:00 7.7 5 Sudeste 11 Sur 0 902.9 -0.9 77
2020-03-30 13:00:00 7.9 3 Norte 10 Nordeste 0 903.4 -0.3 75
2020-03-30 12:00:00 8.2 4 Oeste 8 Noroeste 0 903.6 0.1 75
2020-03-30 11:00:00 6.7 4 Sudoeste 8 Sudoeste 0 903.8 1 81
2020-03-30 10:00:00 5.8 0 Calma 15 Oeste 0 903.7 1 79
2020-03-30 09:00:00 5.7 4 Norte 10 Norte 0 903.5 0.3 75
2020-03-30 08:00:00 6 3 Nordeste 26 Norte 0 902.8 -0.7 71
2020-03-30 07:00:00 6.3 13 Nordeste 27 Nordeste 0 902.7 -1.4 70
2020-03-30 06:00:00 6.8 5 Norte 15 Nordeste 0 903.2 -1.4 70
2020-03-30 05:00:00 6.9 2 Sudoeste 9 Norte 0 903.5 -1.6 72
2020-03-30 04:00:00 7.2 3 Norte 8 Sudeste 0 904.1 -1.6 70
2020-03-30 03:00:00 7.3 4 Este 10 Nordeste 0 904.6 -1.3 71
2020-03-30 02:00:00 7.6 2 Sudoeste 7 Norte 0 905.1 -0.7 68
2020-03-30 01:00:00 8.1 0 Calma 8 Norte 0 905.7 -0.2 67
2020-03-30 00:00:00 9.1 3 Noroeste 9 Nordeste 0 905.9 0.3 60
2020-03-29 23:00:00 10.6 0 Calma 6 Noroeste 0 905.8 0.3 55
2020-03-29 22:00:00 11.8 3 Noroeste 9 Noroeste 0 905.9 0.5 52
2020-03-29 21:00:00 13.3 4 Noroeste 16 Noroeste 0 905.6 0.2 47
2020-03-29 20:00:00 15.1 7 Noroeste 24 Noroeste 0 905.5 -0.4 40
2020-03-29 19:00:00 16.9 11 Noroeste 24 Noroeste 0 905.4 -1.1 34
2020-03-29 18:00:00 17.7 10 Noroeste 25 Noroeste 0 905.4 -1.8 33
2020-03-29 17:00:00 17.6 11 Noroeste 25 Norte 0 905.9 -2 31
2020-03-29 16:00:00 17.2 10 Noroeste 28 Noroeste 0 906.5 -1.8 33
2020-03-29 15:00:00 16.3 12 Noroeste 26 Noroeste 0 907.2 -1.6 36
2020-03-29 14:00:00 15.1 12 Noroeste 23 Noroeste 0 907.9 -1.1 40
2020-03-29 13:00:00 14.3 9 Noroeste 21 Noroeste 0 908.3 -0.9 44
2020-03-29 12:00:00 12 5 Noroeste 11 Noroeste 0 908.8 -0.4 53
2020-03-29 11:00:00 8 5 Oeste 8 Noroeste 0 909 0.1 69
2020-03-29 10:00:00 4.8 4 Norte 9 Nordeste 0 909.2 0.5 78
2020-03-29 09:00:00 0.8 0 Calma 3 Sur 0 909.2 0.4 92
2020-03-29 08:00:00 0.7 0 Calma 5 Nordeste 0 908.9 -0.1 91
2020-03-29 07:00:00 0.8 0 Calma 3 Nordeste 0 908.7 -0.7 90
2020-03-29 06:00:00 1.3 3 Sudoeste 4 Sudoeste 0 908.8 -1 88
2020-03-29 05:00:00 2 2 Norte 5 Norte 0 909 -0.9 88
2020-03-29 03:00:00 3.2 2 Oeste 5 Nordeste 0 909.8 0 84
2020-03-29 01:00:00 3.8 0 Calma 5 Norte 0 909.9 0.3 82
2020-03-29 00:00:00 4.8 0 Calma 7 Norte 0 909.9 0.7 79
2020-03-28 23:00:00 5.9 0 Calma 4 Oeste 0 909.8 1.2 76
2020-03-28 22:00:00 7 0 Calma 6 Norte 0.2 909.6 1.3 71
2020-03-28 21:00:00 8.6 3 Norte 6 Norte 0 909.2 1.3 65
2020-03-28 20:00:00 9.9 2 Sur 10 Sudoeste 0 908.6 1.1 59
2020-03-28 19:00:00 10.8 6 Sudoeste 15 Sur 0 908.3 0.7 55
2020-03-28 18:00:00 11.8 6 Sudoeste 15 Sudoeste 0 907.9 0.1 50
2020-03-28 17:00:00 12.8 6 Sur 14 Sudeste 0 907.5 -0.7 44
2020-03-28 16:00:00 12.6 6 Sur 15 Sudeste 0 907.6 -0.6 45
2020-03-28 15:00:00 11.8 5 Sur 14 Sudeste 0 907.8 -0.6 51
2020-03-28 14:00:00 11 7 Sur 15 Sudeste 0 908.2 0 50
2020-03-28 13:00:00 11.4 7 Sudoeste 12 Oeste 0 908.2 0.1 50
2020-03-28 12:00:00 9.1 4 Sudeste 11 Sudeste 0 908.4 0.6 55
2020-03-28 11:00:00 8.8 4 Oeste 10 Oeste 0 908.2 0.8 55
2020-03-28 10:00:00 6.4 3 Sudoeste 8 Norte 0 908.1 1.2 67
2020-03-28 09:00:00 3.2 5 Norte 12 Norte 0 907.8 1.3 71
2020-03-28 08:00:00 -0.1 3 Este 11 Nordeste 0 907.4 1.2 87
2020-03-28 07:00:00 -0.7 0 Calma 9 Norte 0 906.9 0.7 86
2020-03-28 06:00:00 -0.5 2 Sudoeste 8 Norte 0 906.5 0.4 87
2020-03-28 05:00:00 -0.2 2 Este 6 Norte 0 906.2 0 90
2020-03-28 04:00:00 0.2 2 Sudoeste 6 Noroeste 0 906.2 0.3 88
2020-03-28 03:00:00 1.2 3 Norte 7 Norte 0 906.1 0.2 86
2020-03-28 02:00:00 1.7 0 Calma 12 Norte 0 906.2 0.6 88
2020-03-28 01:00:00 2.2 6 Nordeste 19 Norte 0 905.9 0.5 86
2020-03-28 00:00:00 2.4 8 Nordeste 13 Este 0 905.9 1.1 86
2020-03-27 23:00:00 3.1 3 Norte 7 Norte 0 905.6 1.7 84
2020-03-27 22:00:00 3.9 2 Nordeste 6 Nordeste 0 905.4 2 83
2020-03-27 21:00:00 4.3 3 Sur 24 Sudeste 0 904.8 1.8 82
2020-03-27 20:00:00 4.6 13 Sudeste 27 Sudeste 0 903.9 1.3 82
2020-03-27 19:00:00 5.7 11 Sudeste 22 Sudeste 0 903.4 0.8 75
2020-03-27 18:00:00 6.6 11 Sudeste 27 Sudeste 0 903 0.1 69
2020-03-27 17:00:00 7.6 10 Sudeste 22 Sudeste 0 902.6 -0.5 65
2020-03-27 16:00:00 7.4 9 Sur 26 Sur 0 902.6 -0.6 69
2020-03-27 15:00:00 6.9 10 Sudeste 26 Sudeste 0 902.9 -0.6 70
2020-03-27 14:00:00 6.9 9 Sur 21 Sudoeste 0 903.1 -0.5 73
2020-03-27 13:00:00 5.8 8 Sudeste 20 Sur 0 903.2 0.3 80
2020-03-27 12:00:00 3.3 7 Sudeste 19 Sur 0.2 903.5 1.2 88
2020-03-27 11:00:00 1.2 3 Sudoeste 8 Sudoeste 1.2 903.6 1.8 94
2020-03-27 10:00:00 1.2 4 Oeste 10 Oeste 0.4 902.9 1.8 93
2020-03-27 09:00:00 1.4 0 Calma 10 Este 0.2 902.3 1.4 88
2020-03-27 08:00:00 1.8 5 Este 27 Este 0 901.8 0.9 81
2020-03-27 07:00:00 1.1 12 Este 32 Nordeste 0 901.1 0.4 82
2020-03-27 06:00:00 1.6 13 Este 28 Este 0 900.9 0 77
2020-03-27 05:00:00 2.8 5 Sur 13 Sudeste 0 900.9 -0.4 57
2020-03-27 04:00:00 2.8 7 Sudeste 19 Sudeste 0 900.7 -0.4 60
2020-03-27 03:00:00 2.8 6 Sudeste 13 Este 0 900.9 -0.1 60
2020-03-27 02:00:00 2.5 3 Sudoeste 12 Oeste 0 901.3 0.4 63
2020-03-27 01:00:00 3.1 0 Calma 6 Sudeste 0 901.1 0.6 59
2020-03-27 00:00:00 3.9 4 Este 12 Sur 0 901 0.4 53
2020-03-26 23:00:00 5.1 4 Sudoeste 20 Nordeste 0 900.9 0.7 46
2020-03-26 22:00:00 6.3 10 Nordeste 22 Este 0 900.5 0.6 40
2020-03-26 21:00:00 7.1 8 Nordeste 15 Nordeste 0 900.6 1.3 38
2020-03-26 20:00:00 8.1 6 Norte 16 Norte 0 900.2 1.3 39
2020-03-26 19:00:00 10 4 Noroeste 22 Norte 0 899.9 0.6 39
2020-03-26 18:00:00 12 8 Norte 30 Noroeste 0 899.3 0.1 34
2020-03-26 17:00:00 13.1 8 Norte 27 Oeste 0 898.9 -0.5 37
2020-03-26 16:00:00 11.4 7 Norte 24 Noroeste 0 899.3 -0.4 40
2020-03-26 15:00:00 12.3 8 Noroeste 35 Noroeste 0 899.2 -0.7 36
2020-03-26 14:00:00 11.7 11 Norte 32 Nordeste 0 899.4 -0.6 37
2020-03-26 13:00:00 11.6 10 Norte 30 Norte 0 899.7 -0.5 38
2020-03-26 12:00:00 10.6 9 Norte 32 Noroeste 0 899.9 -0.5 43
2020-03-26 11:00:00 9.1 12 Norte 36 Nordeste 0 900 -0.2 49
2020-03-26 10:00:00 7.4 10 Norte 25 Nordeste 0 900.2 0.2 60
2020-03-26 09:00:00 5.3 7 Norte 22 Norte 0 900.4 0.4 65
2020-03-26 08:00:00 4.3 3 Noroeste 14 Noroeste 0 900.2 0.1 83
2020-03-26 07:00:00 4.9 5 Norte 21 Norte 0 900 -0.9 91
2020-03-26 06:00:00 5.5 5 Noroeste 11 Noroeste 0 900 -1.5 95
2020-03-26 05:00:00 5.4 2 Noroeste 7 Sudoeste 0 900.1 -2.3 95
2020-03-26 04:00:00 5.3 2 Este 9 Sur 0 900.9 -2 93
2020-03-26 03:00:00 5.4 5 Sudoeste 10 Sudoeste 0 901.5 -2.1 93
2020-03-26 02:00:00 5.5 3 Sur 12 Sudoeste 0 902.4 -1.2 93
2020-03-26 01:00:00 5.7 5 Sur 14 Sudoeste 0.2 902.9 -0.9 93
2020-03-26 00:00:00 5.6 4 Sudeste 9 Sudoeste 0 903.6 -0.4 92
2020-03-25 23:00:00 6.3 3 Sur 8 Sudeste 0 903.6 -0.4 88
2020-03-25 22:00:00 6.5 2 Este 6 Sudeste 0 903.8 -0.5 88
2020-03-25 21:00:00 7.3 4 Sudoeste 15 Este 0.2 904 0 85
2020-03-25 20:00:00 7.4 3 Nordeste 9 Sudeste 0 904 -0.3 84
2020-03-25 19:00:00 7.7 4 Noroeste 18 Noroeste 1.2 904.3 0.3 85
2020-03-25 18:00:00 9.3 4 Oeste 7 Sudoeste 0 904 -0.5 65
2020-03-25 17:00:00 9 3 Noroeste 28 Norte 0 904.3 -1.1 74
2020-03-25 16:00:00 13 6 Noroeste 24 Noroeste 0 904 -2.1 46
2020-03-25 15:00:00 12.9 10 Noroeste 26 Norte 0 904.5 -2.1 50
2020-03-25 14:00:00 10 6 Noroeste 16 Noroeste 0 905.4 -1.4 62
2020-03-25 13:00:00 9.5 6 Oeste 14 Sudoeste 0 906.1 -0.8 66
2020-03-25 12:00:00 7.4 7 Oeste 14 Oeste 0 906.6 0 73
2020-03-25 11:00:00 6.6 5 Noroeste 13 Noroeste 0 906.8 0.2 75
2020-03-25 10:00:00 6 3 Oeste 8 Oeste 0 906.9 0.6 82
2020-03-25 09:00:00 5.2 2 Norte 12 Nordeste 0 906.6 0.3 84
2020-03-25 08:00:00 4.5 5 Norte 12 Norte 0 906.6 0.1 86
2020-03-25 07:00:00 4.3 4 Noroeste 9 Norte 0 906.3 -0.5 88
2020-03-25 06:00:00 4.2 2 Sudeste 12 Sudeste 0 906.3 -0.8 86
2020-03-25 05:00:00 4.4 5 Sudeste 9 Sudeste 0 906.5 -0.6 87
2020-03-25 04:00:00 4.9 4 Sur 13 Sur 0 906.8 -0.3 86
2020-03-25 03:00:00 4.9 2 Oeste 10 Este 0 907.1 0 84
2020-03-25 02:00:00 5.2 8 Sudeste 17 Sudeste 0 907.1 -0.1 83
2020-03-25 01:00:00 5.4 7 Sudeste 17 Sudeste 0 907.1 0 82
2020-03-25 00:00:00 6.1 6 Sudeste 12 Sudeste 0 907.1 0.1 77
2020-03-24 23:00:00 6.7 4 Sudeste 12 Sudeste 0 907.2 0.6 73
2020-03-24 22:00:00 7.2 2 Sudeste 8 Sur 0 907.1 1.1 78
2020-03-24 21:00:00 7.4 3 Sudeste 15 Sudeste 0 907 1.3 75
2020-03-24 20:00:00 8.2 6 Sudeste 21 Sudeste 0 906.6 1.1 72
2020-03-24 19:00:00 9.9 9 Sudeste 27 Sur 0 906 0.2 65
2020-03-24 18:00:00 11.3 13 Sudeste 27 Sudeste 0 905.7 -0.2 58
2020-03-24 17:00:00 12.4 13 Sudeste 28 Sudeste 0 905.5 -0.9 51
2020-03-24 16:00:00 11.8 10 Este 27 Sudeste 0.2 905.8 -1 52
2020-03-24 15:00:00 12.4 10 Sudeste 24 Sudeste 0 905.9 -0.8 53
2020-03-24 14:00:00 11.8 8 Sudeste 24 Sudeste 0 906.4 -0.2 56
2020-03-24 13:00:00 11.5 10 Sudeste 27 Sudeste 0 906.8 0.1 60
2020-03-24 12:00:00 11.2 8 Este 24 Sudeste 0 906.7 0.6 59
2020-03-24 11:00:00 11.4 9 Sudeste 28 Sudeste 0 906.6 0.8 61
2020-03-24 10:00:00 9.3 7 Este 19 Sudeste 0 906.7 1.1 71
2020-03-24 09:00:00 8.5 5 Sudeste 14 Sudeste 0 906.1 0.3 75
2020-03-24 08:00:00 7.4 3 Norte 10 Este 0 905.8 0.1 80
2020-03-24 07:00:00 7.7 4 Este 11 Este 0 905.6 -0.3 77
2020-03-24 06:00:00 7.5 0 Calma 8 Este 0 905.8 -0.3 79
2020-03-24 05:00:00 7.5 3 Sudoeste 15 Sudeste 0 905.7 -0.6 79
2020-03-24 04:00:00 7.6 2 Este 8 Sudeste 0 905.9 -0.8 78
2020-03-24 03:00:00 7.6 2 Norte 15 Nordeste 0 906.1 -0.9 81
2020-03-24 02:00:00 7.7 5 Este 13 Sudeste 0 906.3 -0.8 79
2020-03-24 01:00:00 7.7 4 Este 14 Este 0 906.7 0 79
2020-03-24 00:00:00 8.3 4 Este 25 Este 0 907 0 76
2020-03-23 23:00:00 8.2 5 Este 19 Nordeste 0 907.1 0.6 77
2020-03-23 22:00:00 8.7 8 Este 19 Este 0 906.7 0.5 75
2020-03-23 21:00:00 8.7 5 Este 19 Sudeste 0 907 1.1 78
2020-03-23 20:00:00 8.9 6 Sudeste 17 Este 0 906.5 0.7 76
2020-03-23 19:00:00 10 6 Este 26 Sudeste 0 906.2 -0.1 71
2020-03-23 18:00:00 11.4 8 Sudeste 22 Sudeste 0 905.9 -0.5 68
2020-03-23 17:00:00 11.1 6 Este 29 Sur 0 905.8 -0.3 72
2020-03-23 16:00:00 9.5 9 Sudeste 21 Sudeste 1.2 906.3 -0.1 81
2020-03-23 15:00:00 9.6 9 Sur 28 Sudeste 0.2 906.4 -0.3 83
2020-03-23 14:00:00 12.5 10 Sudeste 27 Sudeste 0 906.1 -0.6 61
2020-03-23 13:00:00 11.6 12 Sudeste 31 Sudeste 0 906.4 0 69
2020-03-23 12:00:00 11.1 11 Sudeste 26 Sur 0.4 906.7 1 72
2020-03-23 11:00:00 8.9 8 Sudeste 26 Sudeste 0.2 906.7 1.4 82
2020-03-23 10:00:00 8.5 5 Sudeste 20 Sudeste 0 906.4 1.5 84
2020-03-23 09:00:00 7.6 7 Este 15 Sudeste 0 905.7 1.2 87
2020-03-23 08:00:00 6.5 3 Sudeste 8 Sudeste 1.4 905.3 0.9 94
2020-03-23 07:00:00 6.7 2 Sudeste 9 Este 0 904.9 0.6 91
2020-03-23 06:00:00 6.7 2 Este 6 Sudeste 0 904.5 0 92
2020-03-23 05:00:00 6.7 0 Calma 6 Norte 0.4 904.4 -0.1 95
2020-03-23 04:00:00 6.8 3 Norte 5 Norte 0.8 904.3 -0.4 94
2020-03-23 03:00:00 6.9 0 Calma 5 Sur 1.2 904.5 -0.4 93
2020-03-23 02:00:00 7.1 0 Calma 5 Norte 0 904.5 -0.2 93
2020-03-23 01:00:00 7.1 0 Calma 7 Sur 0.2 904.7 0.2 93
2020-03-23 00:00:00 7.2 2 Sur 9 Sudeste 0 904.9 0.7 92
2020-03-22 23:00:00 7.2 3 Sudeste 15 Sudeste 0.4 904.7 1.5 90
2020-03-22 22:00:00 7.2 5 Sudeste 16 Sudeste 0.4 904.5 1.9 89
2020-03-22 21:00:00 7.5 9 Sudeste 17 Sudeste 0.8 904.2 2.3 89
2020-03-22 20:00:00 8.3 6 Sudeste 15 Sudeste 0 903.2 1.5 87
2020-03-22 19:00:00 8.9 4 Sudeste 21 Sudeste 0.2 902.6 1.1 83
2020-03-22 18:00:00 9.2 7 Sudeste 19 Sur 0.2 901.9 0 83
2020-03-22 17:00:00 9.7 7 Sudeste 23 Sudeste 1 901.7 -0.3 82
2020-03-22 16:00:00 11.2 9 Sudeste 21 Sudeste 0.2 901.5 -1 72
2020-03-22 15:00:00 9.3 10 Sudeste 25 Sur 3 901.9 -0.7 84
2020-03-22 14:00:00 10 3 Norte 9 Noroeste 1 902 -0.6 80
2020-03-22 13:00:00 9.3 5 Nordeste 12 Nordeste 0 902.5 -0.2 79
2020-03-22 12:00:00 8.2 4 Sudoeste 6 Noroeste 0 902.6 0.3 80
2020-03-22 11:00:00 6.7 2 Norte 6 Oeste 0 902.6 0.8 93
2020-03-22 10:00:00 5.7 2 Norte 8 Norte 0 902.7 1.1 91
2020-03-22 09:00:00 5.2 2 Sudeste 8 Noroeste 0 902.3 0.6 93
2020-03-22 08:00:00 4.2 5 Norte 12 Norte 0 901.8 -0.1 94
2020-03-22 07:00:00 4 2 Sudoeste 5 Sudoeste 0 901.6 -0.2 94
2020-03-22 06:00:00 4.6 0 Calma 6 Oeste 0 901.7 -0.3 95
2020-03-22 05:00:00 4.7 0 Calma 5 Oeste 0 901.9 -0.4 95
2020-03-22 04:00:00 4.7 0 Calma 4 Norte 0 901.8 -1 94
2020-03-22 03:00:00 4.4 0 Calma 4 Norte 0 902 -1 94
2020-03-22 02:00:00 4.7 2 Sur 8 Norte 0 902.3 -1.2 93
2020-03-22 01:00:00 5.3 0 Calma 9 Sudoeste 0 902.8 -0.9 91
2020-03-22 00:00:00 5.3 4 Sur 10 Sur 0.6 903 -0.7 90
2020-03-21 23:00:00 5.2 3 Este 8 Sudeste 0.8 903.5 0.3 92
2020-03-21 22:00:00 5.4 3 Sudeste 5 Sudeste 1 903.7 0.6 93
2020-03-21 21:00:00 5.5 2 Sudeste 7 Norte 0.6 903.7 1.2 92
2020-03-21 20:00:00 5.7 3 Nordeste 12 Oeste 1.2 903.2 0.6 92
2020-03-21 19:00:00 6.3 5 Sudoeste 12 Sudoeste 0.6 903.1 0.2 92
2020-03-21 18:00:00 6.4 3 Noroeste 12 Oeste 0 902.5 -0.6 92
2020-03-21 17:00:00 6.5 8 Sudoeste 15 Oeste 0 902.6 -0.7 93
2020-03-21 16:00:00 6.9 6 Oeste 16 Oeste 0 902.9 -0.7 90
2020-03-21 15:00:00 7.6 5 Oeste 23 Sudeste 0 903.1 -0.8 91
2020-03-21 14:00:00 9.1 8 Sur 21 Sur 0 903.3 -0.8 78
2020-03-21 13:00:00 9.5 9 Sur 23 Sudeste 0 903.6 -0.7 75
2020-03-21 12:00:00 9.3 11 Sudeste 28 Sudeste 0 903.9 -0.1 76
2020-03-21 11:00:00 8 11 Sudeste 26 Sudeste 0 904.1 0.3 80
2020-03-21 10:00:00 7.5 11 Sudeste 27 Sudeste 0 904.3 0.5 80
2020-03-21 09:00:00 7.3 12 Sudeste 28 Sudeste 0 904 0.2 80
2020-03-21 08:00:00 7.1 12 Sudeste 24 Sudeste 0 903.8 -0.3 80
2020-03-21 07:00:00 6.6 8 Sudeste 23 Sudeste 0 903.8 -0.7 81
2020-03-21 06:00:00 6 7 Sudeste 16 Sudeste 0 903.8 -1.4 84
2020-03-21 05:00:00 6 6 Sudeste 15 Sudeste 0 904.1 -1.8 84
2020-03-21 04:00:00 6.4 6 Sudeste 27 Sudeste 0 904.5 -1.7 81
2020-03-21 03:00:00 6.7 11 Sudeste 22 Sudeste 0 905.2 -1.5 78
2020-03-21 02:00:00 7 9 Sudeste 27 Sudeste 0 905.9 -0.7 78
2020-03-21 01:00:00 7.3 13 Sudeste 30 Sudeste 0 906.2 -0.3 78
2020-03-21 00:00:00 8.1 9 Sudeste 22 Sudeste 0 906.7 0.2 78
2020-03-20 23:00:00 8.4 6 Sudeste 24 Sudeste 0 906.6 0 80
2020-03-20 22:00:00 8.6 9 Sudeste 17 Sudeste 0 906.5 0 78
2020-03-20 21:00:00 8.8 5 Sur 12 Sudeste 0 906.5 0 80
2020-03-20 20:00:00 9 6 Sudeste 16 Sudeste 0 906.6 -0.2 79
2020-03-20 19:00:00 9.5 5 Sudeste 20 Sur 0 906.5 -0.7 76
2020-03-20 18:00:00 10.1 8 Sur 24 Sudeste 0 906.5 -1 73
2020-03-20 17:00:00 10.3 12 Sudeste 25 Sudeste 0 906.8 -1.2 70
2020-03-20 16:00:00 10.6 12 Sudeste 27 Sudeste 0 907.2 -0.9 68
2020-03-20 15:00:00 10.7 10 Sur 25 Sudeste 0 907.5 -1.2 67
2020-03-20 14:00:00 9.6 10 Sur 24 Sur 0 908 -0.6 73
2020-03-20 13:00:00 9.3 13 Sudeste 26 Sudeste 0 908.1 -0.3 74
2020-03-20 12:00:00 8.8 10 Sudeste 25 Sudeste 0 908.7 0.5 76
2020-03-20 11:00:00 8.8 11 Sudeste 26 Sudeste 0 908.6 0.8 76
2020-03-20 10:00:00 8.1 12 Sudeste 24 Sudeste 0 908.4 1 79
2020-03-20 09:00:00 7.9 9 Sudeste 25 Sudeste 0 908.2 0.9 80
2020-03-20 08:00:00 7.2 9 Sudeste 21 Sudeste 0 907.8 0 83
2020-03-20 07:00:00 7.1 8 Sudeste 24 Sudeste 0 907.4 -0.6 82
2020-03-20 06:00:00 7.2 11 Sudeste 24 Sudeste 0 907.3 -1.3 82
2020-03-20 05:00:00 7.4 9 Sudeste 22 Sudeste 0 907.8 -1 82
2020-03-20 04:00:00 7.3 12 Sudeste 28 Sudeste 0 908 -0.9 81
2020-03-20 03:00:00 7.4 9 Sur 19 Sudeste 0 908.6 -0.7 79
2020-03-20 02:00:00 7.5 5 Sur 17 Sudeste 0 908.8 -0.9 79
2020-03-20 01:00:00 7.6 6 Sudeste 19 Sudeste 0 908.9 -0.7 78
2020-03-20 00:00:00 8.1 6 Sudeste 22 Sudeste 0 909.3 -0.4 78
2020-03-19 23:00:00 8.4 10 Sudeste 20 Este 0 909.7 0.2 78
2020-03-19 22:00:00 8.8 4 Sur 12 Este 0 909.6 0.3 78
2020-03-19 21:00:00 9 4 Sur 20 Sur 0 909.7 0.5 76
2020-03-19 20:00:00 9.6 7 Sur 18 Sur 0 909.5 0.1 73
2020-03-19 19:00:00 10.8 9 Sudeste 22 Sur 0 909.3 -0.3 68
2020-03-19 18:00:00 12.2 11 Sudeste 27 Sudeste 0 909.2 -0.9 60
2020-03-19 17:00:00 13.9 12 Sur 28 Sur 0 909.4 -1.6 53
2020-03-19 16:00:00 14.3 13 Sudeste 30 Sur 0 909.6 -2.1 54
2020-03-19 15:00:00 14.2 14 Sur 29 Sur 0 910.1 -2.3 54
2020-03-19 14:00:00 14 12 Sur 27 Sur 0 911 -1.9 53
2020-03-19 13:00:00 13 11 Sur 23 Sur 0 911.7 -1.1 56
2020-03-19 12:00:00 11.4 12 Sudeste 26 Sudeste 0 912.4 -0.3 61
2020-03-19 11:00:00 10 11 Sur 25 Sudeste 0 912.9 0.4 65
2020-03-19 10:00:00 8.6 9 Sudeste 20 Sudeste 0 912.8 0.4 73
2020-03-19 09:00:00 5.7 3 Sudoeste 6 Sudoeste 0 912.7 0.5 80
2020-03-19 08:00:00 4.2 0 Calma 3 Oeste 0 912.5 0.2 87
2020-03-19 07:00:00 4.3 0 Calma 5 Oeste 0 912.4 -0.1 88
2020-03-19 06:00:00 4.9 0 Calma 3 Oeste 0 912.2 -0.8 87
2020-03-19 05:00:00 5.6 0 Calma 4 Oeste 0 912.3 -1.3 85
2020-03-19 04:00:00 6.3 3 Sudeste 5 Sudeste 0 912.5 -1.5 84
2020-03-19 03:00:00 7.1 2 Sudeste 5 Este 0 913 -1.3 81
2020-03-19 02:00:00 7.8 2 Sur 4 Sur 0 913.6 -0.8 79
2020-03-19 01:00:00 8.4 0 Calma 5 Sur 0 914 -0.5 78
2020-03-19 00:00:00 9.1 2 Sur 9 Sudeste 0 914.3 -0.1 77
2020-03-18 23:00:00 9.6 5 Sudeste 9 Sudeste 0 914.4 0.1 76
2020-03-18 22:00:00 10.5 2 Sudeste 6 Sudoeste 0 914.5 0.7 74
2020-03-18 21:00:00 11.1 5 Oeste 12 Sudeste 0 914.4 0.8 73
2020-03-18 20:00:00 12 4 Sudeste 19 Sudeste 0 914.3 0.5 70
2020-03-18 19:00:00 13.7 11 Sudeste 22 Sudeste 0 913.8 -0.1 62
2020-03-18 18:00:00 15.1 8 Sudeste 19 Sudeste 0 913.6 -0.7 54
2020-03-18 17:00:00 15.8 8 Sur 21 Sudeste 0 913.8 -1.2 53
2020-03-18 16:00:00 16.9 8 Sur 22 Sudeste 0 913.9 -1.7 49
2020-03-18 15:00:00 16 9 Sur 27 Sudeste 0 914.3 -1.8 50
2020-03-18 14:00:00 15.2 11 Sur 26 Sudeste 0 915 -1.5 50
2020-03-18 13:00:00 14.1 6 Sudeste 13 Sur 0 915.6 -0.9 54
2020-03-18 12:00:00 11.8 3 Oeste 7 Oeste 0 916.1 0 66
2020-03-18 11:00:00 10.7 3 Sudoeste 5 Sudeste 0 916.5 0.5 69
2020-03-18 10:00:00 9.2 3 Sur 10 Norte 0 916.5 0.7 75
2020-03-18 09:00:00 8.4 3 Norte 7 Noroeste 0 916.1 0.6 77
2020-03-18 08:00:00 8.1 3 Norte 6 Norte 0 916 0.7 75
2020-03-18 07:00:00 8.2 0 Calma 5 Oeste 0 915.8 1 74
2020-03-18 06:00:00 8.5 3 Norte 8 Sudoeste 0 915.5 0.2 71
2020-03-18 05:00:00 9 3 Norte 9 Noroeste 0 915.3 -0.4 69
2020-03-18 04:00:00 9.7 3 Este 17 Sur 0 914.8 -0.8 64
2020-03-18 03:00:00 10.3 5 Este 24 Este 0 915.3 -0.9 61
2020-03-18 02:00:00 10.3 9 Sur 25 Sudeste 0 915.7 -0.5 62
2020-03-18 01:00:00 10.2 8 Sudeste 22 Sur 0 915.6 -0.6 64
2020-03-18 00:00:00 10.2 5 Sudeste 24 Sur 0 916.2 0.4 69
2020-03-17 23:00:00 10.1 4 Sudeste 17 Sudeste 0 916.2 1.3 71
2020-03-17 22:00:00 9.8 6 Sudeste 18 Sur 0 916.2 1.3 75
2020-03-17 21:00:00 10.3 4 Sur 24 Sudeste 0 915.8 1.1 71
2020-03-17 20:00:00 10.3 4 Sudeste 14 Este 0 914.9 0.3 77
2020-03-17 19:00:00 11.2 7 Sudeste 14 Sudeste 0 914.9 0.5 81
2020-03-17 18:00:00 10.8 3 Noroeste 9 Noroeste 0.2 914.7 -0.2 88
2020-03-17 17:00:00 11.2 3 Oeste 8 Norte 0 914.6 -0.5 84
2020-03-17 16:00:00 10.8 3 Este 22 Este 0.6 914.4 0 82
2020-03-17 15:00:00 11.8 9 Sudeste 20 Este 0 914.9 0.6 79
2020-03-17 14:00:00 10.3 9 Sudeste 32 Sudeste 1 915.1 1.3 88
2020-03-17 13:00:00 11.7 8 Este 38 Sudeste 0 914.4 1.1 76
2020-03-17 12:00:00 11.6 17 Sudeste 36 Sudeste 0 914.3 2 71
2020-03-17 11:00:00 10.3 7 Sudeste 28 Sudeste 0 913.8 2.6 75
2020-03-17 10:00:00 9.4 13 Sudeste 32 Sudeste 0 913.3 2.4 80
2020-03-17 09:00:00 8.6 7 Sudeste 30 Este 0 912.3 2 79
2020-03-17 08:00:00 8 13 Este 38 Este 0 911.2 1.6 81
2020-03-17 07:00:00 6.2 5 Sudeste 19 Sudeste 0 910.9 1.7 95
2020-03-17 06:00:00 4.1 2 Nordeste 5 Sudoeste 0 910.3 1 97
2020-03-17 05:00:00 3.7 3 Nordeste 9 Noroeste 0 909.6 0.4 95
2020-03-17 04:00:00 3.6 3 Sudoeste 7 Este 0.2 909.2 0.3 96
2020-03-17 03:00:00 3.5 4 Norte 13 Nordeste 0.2 909.3 0.3 95
2020-03-17 02:00:00 3.1 4 Norte 15 Norte 0.2 909.2 0.7 95
2020-03-17 01:00:00 2.6 7 Norte 14 Norte 0.2 908.9 1.2 94
2020-03-17 00:00:00 2.7 3 Norte 9 Norte 0.8 909 2.9 93
2020-03-16 23:00:00 2.5 4 Sudeste 10 Este 2 908.5 2.7 92
2020-03-16 22:00:00 3.2 5 Este 28 Nordeste 0.8 907.7 2.5 85
2020-03-16 21:00:00 4.8 9 Nordeste 23 Este 0 906.1 1.6 77
2020-03-16 20:00:00 5.2 4 Sudeste 12 Sur 0 905.8 1.4 78
2020-03-16 19:00:00 5.4 5 Sur 13 Este 0 905.2 0.8 74
2020-03-16 18:00:00 6.6 8 Este 15 Nordeste 0 904.5 0.3 70
2020-03-16 17:00:00 5.2 4 Este 15 Nordeste 0 904.4 0.2 76
2020-03-16 16:00:00 3.9 5 Este 19 Este 0.2 904.4 0.6 80
2020-03-16 15:00:00 3.6 5 Sudeste 15 Sudeste 0 904.2 0.7 85
2020-03-16 14:00:00 3.3 5 Sudeste 17 Sudeste 0 904.2 0.6 87
2020-03-16 13:00:00 3 8 Sudeste 19 Sudeste 0.2 903.8 1.5 91
2020-03-16 12:00:00 3.1 8 Sudeste 17 Sudeste 0.2 903.5 1.1 95
2020-03-16 11:00:00 2.8 9 Sur 19 Sudeste 0.4 903.6 1.8 91
2020-03-16 10:00:00 2.8 4 Este 15 Sudeste 1.4 902.3 1.7 93
2020-03-16 09:00:00 3.2 5 Sur 19 Noroeste 3.2 902.4 2.9 89
2020-03-16 08:00:00 5.3 7 Oeste 15 Oeste 1.6 901.8 2.2 92
2020-03-16 07:00:00 6.1 6 Noroeste 23 Noroeste 6.6 900.6 0.3 91
2020-03-16 06:00:00 8.4 16 Sudeste 37 Sudeste 2.8 899.5 -2 94
2020-03-16 05:00:00 8.5 14 Sudeste 31 Sudeste 4.8 899.6 -3.2 95
2020-03-16 04:00:00 8.6 13 Sudeste 29 Sudeste 0.4 900.3 -3.2 92
2020-03-16 03:00:00 8.5 10 Sudeste 23 Sudeste 1.6 901.5 -2.7 93
2020-03-16 02:00:00 9 9 Sudeste 19 Sudeste 0.2 902.8 -1.7 92
2020-03-16 01:00:00 9.2 6 Sur 14 Sudoeste 0 903.5 -0.4 93
2020-03-16 00:00:00 9 7 Sur 19 Noroeste 4 904.2 0.4 92
2020-03-15 23:00:00 9.5 3 Noroeste 21 Sur 1.4 904.5 1 89
2020-03-15 22:00:00 9.7 9 Sur 24 Sudeste 0 903.9 -0.4 82
2020-03-15 21:00:00 9.6 2 Norte 9 Sur 0 903.8 -0.7 85
2020-03-15 20:00:00 9.8 7 Sudeste 25 Sudeste 0 903.5 -0.6 83
2020-03-15 19:00:00 10.7 11 Nordeste 29 Nordeste 1.2 904.3 -0.6 75
2020-03-15 18:00:00 11.2 6 Noroeste 30 Oeste 7 904.5 -0.5 81
2020-03-15 17:00:00 15.8 7 Sur 20 Sur 0 904.1 -1.9 56
2020-03-15 16:00:00 16.6 10 Sur 24 Sur 0 904.9 -2.3 54
2020-03-15 15:00:00 17.8 11 Sur 23 Sudoeste 0 905 -2.8 53
2020-03-15 14:00:00 18.1 10 Sur 25 Sudoeste 0 906 -2.3 52
2020-03-15 13:00:00 15.9 9 Sudeste 25 Sudeste 0 907.2 -0.9 60
2020-03-15 12:00:00 15.3 12 Sudeste 24 Sur 0 907.8 -0.4 63
2020-03-15 11:00:00 13.5 9 Sur 25 Sudeste 0 908.3 0.1 68
2020-03-15 10:00:00 13.6 12 Sudeste 24 Sur 0 908.1 -0.2 68
2020-03-15 09:00:00 9.9 2 Sur 8 Sudeste 0 908.2 -0.1 88
2020-03-15 08:00:00 8.1 0 Calma 6 Este 0 908.2 -0.4 91
2020-03-15 07:00:00 7.7 0 Calma 5 Oeste 0 908.3 -0.6 90
2020-03-15 06:00:00 8.1 0 Calma 4 Oeste 0 908.3 -1.2 90
2020-03-15 05:00:00 8.7 3 Oeste 5 Oeste 0 908.6 -1.3 89
2020-03-15 04:00:00 9.4 0 Calma 6 Oeste 0 908.9 -1.2 86
2020-03-15 03:00:00 10.1 2 Noroeste 6 Oeste 0 909.5 -0.7 84
2020-03-15 02:00:00 10.9 2 Noroeste 12 Sudeste 0 909.9 -0.3 80
2020-03-15 01:00:00 11.7 7 Sudeste 17 Sudeste 0 910.1 0.1 78
2020-03-15 00:00:00 12.5 9 Sudeste 19 Sudeste 0 910.2 0.4 76
2020-03-14 23:00:00 13.5 7 Sudeste 18 Sudeste 0 910.2 0.5 71
2020-03-14 22:00:00 13.6 0 Calma 5 Oeste 0 910 0.4 77
2020-03-14 21:00:00 14.3 2 Sudoeste 5 Norte 0 909.8 0.5 75
2020-03-14 20:00:00 15 2 Sudeste 7 Este 0.2 909.7 0.8 69
2020-03-14 19:00:00 15.7 3 Noroeste 8 Oeste 0 909.6 0.7 68
2020-03-14 18:00:00 16.5 4 Este 18 Noroeste 0 909.3 0.1 61
2020-03-14 17:00:00 19.6 9 Noroeste 23 Noroeste 0 908.9 -0.9 49
2020-03-14 16:00:00 20.4 6 Oeste 22 Sudoeste 0 908.9 -1.6 40
2020-03-14 15:00:00 21.5 11 Sudoeste 21 Sudoeste 0 909.2 -1.8 38
2020-03-14 14:00:00 21.1 5 Sudoeste 17 Sudoeste 0 909.8 -1.5 37
2020-03-14 13:00:00 19.4 4 Sudoeste 11 Sudoeste 0 910.5 -0.8 49
2020-03-14 12:00:00 16.8 5 Sudoeste 9 Sur 0 911 0 56
2020-03-14 11:00:00 14.1 4 Sudoeste 8 Oeste 0 911.3 0.8 65
2020-03-14 10:00:00 11 3 Sudoeste 8 Sudeste 0 911.3 1 77
2020-03-14 09:00:00 7.3 3 Sur 9 Nordeste 0 911 1.1 86
2020-03-14 08:00:00 7.4 3 Norte 18 Norte 0 910.5 0.7 86
2020-03-14 07:00:00 6.5 8 Norte 20 Norte 0 910.3 0.4 87
2020-03-14 06:00:00 7.1 0 Calma 4 Norte 0 909.9 -0.5 85
2020-03-14 05:00:00 7.6 2 Este 9 Nordeste 0 909.8 -0.7 83
2020-03-14 04:00:00 8.2 0 Calma 4 Noroeste 0 909.9 -0.5 83
2020-03-14 03:00:00 9 3 Nordeste 6 Norte 0 910.4 0.2 82
2020-03-14 02:00:00 9.6 0 Calma 6 Norte 0 910.5 0.3 78
2020-03-14 01:00:00 10.3 2 Sur 5 Noroeste 0 910.4 0.6 76
2020-03-14 00:00:00 10.9 2 Este 9 Sudeste 0 910.2 0.8 74
2020-03-13 23:00:00 11.7 3 Sudeste 13 Sudeste 0 910.2 1.2 70
2020-03-13 22:00:00 12.9 3 Sur 11 Sudeste 0 909.8 1.1 64
2020-03-13 21:00:00 14.1 0 Calma 17 Sudeste 0 909.4 1.2 59
2020-03-13 20:00:00 15.1 10 Sudeste 19 Sudeste 0 909 1 56
2020-03-13 19:00:00 17.6 8 Sudeste 19 Sudeste 0 908.7 0.5 47
2020-03-13 18:00:00 19.6 10 Sudeste 25 Sudeste 0 908.2 -0.1 39
2020-03-13 17:00:00 20.7 12 Sudeste 25 Sudeste 0 908 -0.9 37
2020-03-13 16:00:00 21 12 Sudeste 23 Sudeste 0 908.2 -1.4 36
2020-03-13 15:00:00 21.4 10 Sudeste 23 Este 0 908.3 -1.7 39
2020-03-13 14:00:00 20.4 10 Sudeste 24 Sudeste 0 908.9 -1.4 41
2020-03-13 13:00:00 19.9 9 Sur 25 Sudeste 0 909.6 -0.7 43
2020-03-13 12:00:00 18.5 11 Sudeste 22 Sudeste 0 910 0.4 47
2020-03-13 11:00:00 17.1 12 Sudeste 22 Sudeste 0 910.3 0.9 51
2020-03-13 10:00:00 14.2 5 Oeste 10 Sudeste 0 910.3 1.4 60
2020-03-13 09:00:00 10.8 4 Noroeste 7 Oeste 0 909.6 0.8 70
2020-03-13 08:00:00 9 0 Calma 5 Oeste 0 909.4 0.4 75
2020-03-13 07:00:00 9.5 4 Oeste 9 Norte 0 908.9 0.1 72
2020-03-13 06:00:00 10.2 0 Calma 4 Este 0 908.8 -0.3 68
2020-03-13 05:00:00 10.9 2 Sur 5 Oeste 0 909 -0.4 66
2020-03-13 04:00:00 11.2 0 Calma 6 Oeste 0 908.8 -0.9 65
2020-03-13 03:00:00 11.7 0 Calma 8 Norte 0 909.1 -1.1 63
2020-03-13 02:00:00 12.4 2 Noroeste 4 Norte 0 909.4 -0.7 60
2020-03-13 01:00:00 13.1 2 Noroeste 4 Noroeste 0 909.7 -0.2 57
2020-03-13 00:00:00 14.1 0 Calma 4 Noroeste 0 910.2 0.5 55
2020-03-12 23:00:00 15.3 2 Oeste 6 Nordeste 0 910.1 0.6 50
2020-03-12 22:00:00 16.1 2 Sudeste 7 Sudoeste 0 909.9 0.5 47
2020-03-12 21:00:00 17.7 2 Nordeste 9 Sur 0 909.7 0.3 42
2020-03-12 20:00:00 19.8 0 Calma 6 Este 0 909.5 0.1 36
2020-03-12 19:00:00 22.6 3 Sur 14 Sudoeste 0 909.4 -0.4 29
2020-03-12 18:00:00 24.2 8 Sudoeste 18 Sudoeste 0 909.4 -1.2 24
2020-03-12 17:00:00 25.4 8 Sudoeste 19 Sudoeste 0 909.4 -1.9 25
2020-03-12 16:00:00 26 9 Sudoeste 22 Sudoeste 0 909.8 -2.3 24
2020-03-12 15:00:00 26.1 10 Sudoeste 23 Sudoeste 0 910.6 -2 21
2020-03-12 14:00:00 26.1 9 Sudoeste 20 Oeste 0 911.3 -1.7 23
2020-03-12 13:00:00 25.4 7 Sudoeste 17 Sudoeste 0 912.1 -1 28
2020-03-12 12:00:00 22.7 5 Sur 10 Sur 0 912.6 -0.5 33
2020-03-12 11:00:00 17.5 3 Sudoeste 8 Sudoeste 0 913 -0.1 48
2020-03-12 10:00:00 13.4 0 Calma 4 Sudoeste 0 913.1 0.1 59
2020-03-12 09:00:00 9.2 0 Calma 3 Sudoeste 0 913.1 0.2 69
2020-03-12 08:00:00 7.6 0 Calma 6 Sudeste 0 913.1 -0.1 75
2020-03-12 07:00:00 7.6 3 Sudoeste 7 Norte 0 913 -0.9 72
2020-03-12 06:00:00 7.7 3 Este 5 Sudeste 0 912.9 -1.5 72
2020-03-12 05:00:00 8.3 0 Calma 4 Noroeste 0 913.2 -1.5 70
2020-03-12 04:00:00 9.1 0 Calma 4 Sur 0 913.9 -0.7 68
2020-03-12 03:00:00 9.9 0 Calma 5 Norte 0 914.4 -0.5 66
2020-03-12 02:00:00 11 0 Calma 6 Norte 0 914.7 -0.2 62
2020-03-12 01:00:00 11.8 3 Norte 5 Norte 0 914.6 -0.3 60
2020-03-12 00:00:00 12.8 0 Calma 7 Norte 0 914.9 0.2 56
2020-03-11 23:00:00 14.1 3 Norte 7 Nordeste 0 914.9 0.3 52
2020-03-11 22:00:00 15.5 2 Sur 5 Norte 0 914.9 0.3 48
2020-03-11 21:00:00 17.3 2 Oeste 6 Norte 0 914.7 0.5 43
2020-03-11 20:00:00 19.4 3 Norte 5 Norte 0 914.6 0.7 38
2020-03-11 19:00:00 22.4 2 Norte 14 Noroeste 0 914.6 0.4 32
2020-03-11 18:00:00 24.5 8 Noroeste 24 Noroeste 0 914.2 -0.4 26
2020-03-11 17:00:00 25.3 9 Noroeste 24 Noroeste 0 913.9 -1.3 25
2020-03-11 16:00:00 25.5 12 Noroeste 25 Noroeste 0 914.2 -1.6 24
2020-03-11 15:00:00 25.7 6 Noroeste 21 Noroeste 0 914.6 -1.9 26
2020-03-11 14:00:00 24.3 10 Noroeste 23 Noroeste 0 915.2 -1.4 26
2020-03-11 13:00:00 23 11 Noroeste 20 Noroeste 0 915.8 -0.7 31
2020-03-11 12:00:00 19.7 5 Oeste 7 Oeste 0 916.5 0.1 44
2020-03-11 11:00:00 15.9 3 Sudoeste 5 Sur 0 916.6 0.4 50
2020-03-11 10:00:00 11.9 3 Sudoeste 5 Sudoeste 0 916.5 0.6 61
2020-03-11 09:00:00 7.2 0 Calma 4 Sur 0 916.4 0.5 79
2020-03-11 08:00:00 5.2 3 Sudeste 5 Norte 0 916.2 0.4 81
2020-03-11 07:00:00 5.7 3 Norte 6 Noroeste 0 915.9 -0.1 80
2020-03-11 06:00:00 6.1 0 Calma 5 Sudoeste 0 915.9 -0.5 77
2020-03-11 05:00:00 6.4 0 Calma 5 Noroeste 0 915.8 -1.1 76
2020-03-11 04:00:00 6.8 3 Este 5 Sudeste 0 916 -1 75
2020-03-11 03:00:00 7.7 0 Calma 4 Norte 0 916.4 -0.6 72
2020-03-11 02:00:00 8.6 2 Noroeste 6 Norte 0 916.9 -0.4 70
2020-03-11 01:00:00 9.4 4 Norte 8 Norte 0 917 -0.1 67
2020-03-11 00:00:00 10.3 0 Calma 5 Sudeste 0 917 0.1 63
2020-03-10 23:00:00 11.4 0 Calma 10 Norte 0 917.3 0.7 60
2020-03-10 22:00:00 12.9 4 Norte 12 Nordeste 0 917.1 0.9 54
2020-03-10 21:00:00 14.5 4 Norte 8 Norte 0 916.9 1 49
2020-03-10 20:00:00 16.7 2 Oeste 9 Norte 0 916.6 0.7 44
2020-03-10 19:00:00 19.2 3 Noroeste 13 Nordeste 0 916.2 0.3 37
2020-03-10 18:00:00 21 6 Noroeste 23 Noroeste 0 915.9 -0.3 33
2020-03-10 17:00:00 21 9 Noroeste 26 Noroeste 0 915.9 -0.8 32
2020-03-10 16:00:00 21.9 6 Noroeste 26 Noroeste 0 915.9 -1.5 31
2020-03-10 15:00:00 20.3 12 Noroeste 25 Noroeste 0 916.2 -1.6 32
2020-03-10 14:00:00 19.3 9 Noroeste 24 Noroeste 0 916.7 -1.1 34
2020-03-10 13:00:00 17.6 10 Noroeste 23 Noroeste 0 917.4 -0.1 35
2020-03-10 12:00:00 16.2 8 Noroeste 19 Oeste 0 917.8 0.5 36
2020-03-10 11:00:00 14.5 4 Norte 22 Norte 0 917.8 1.1 43
2020-03-10 10:00:00 10.2 8 Norte 22 Norte 0 917.5 1.2 51
2020-03-10 09:00:00 7.2 6 Norte 17 Norte 0 917.3 1.4 60
2020-03-10 08:00:00 5.3 4 Oeste 13 Noroeste 0 916.7 0.7 65
2020-03-10 07:00:00 5.7 5 Noroeste 18 Norte 0 916.3 0.3 63
2020-03-10 06:00:00 5 5 Noroeste 13 Norte 0 915.9 -0.1 68
2020-03-10 05:00:00 5.2 2 Noroeste 7 Norte 0 916 0.1 68
2020-03-10 04:00:00 5.8 0 Calma 14 Norte 0 916 0 64
2020-03-10 03:00:00 6.6 5 Norte 14 Norte 0 916 0.4 61
2020-03-10 02:00:00 6.9 3 Norte 11 Norte 0 915.9 0.3 60
2020-03-10 01:00:00 7.8 3 Norte 13 Noroeste 0 916 0.5 56
2020-03-10 00:00:00 8.3 4 Noroeste 17 Norte 0 915.6 0.6 53
2020-03-09 23:00:00 8.9 5 Noroeste 23 Norte 0 915.6 1 50
2020-03-09 22:00:00 9.7 7 Noroeste 29 Norte 0 915.5 1.1 46
2020-03-09 21:00:00 10.4 7 Noroeste 25 Noroeste 0 915 1.1 46
2020-03-09 20:00:00 11.3 6 Noroeste 24 Norte 0 914.6 0.9 42
2020-03-09 19:00:00 12.9 9 Noroeste 29 Norte 0 914.4 0.4 38
2020-03-09 18:00:00 14.6 7 Noroeste 33 Noroeste 0 913.9 0 34
2020-03-09 17:00:00 15.6 11 Noroeste 35 Noroeste 0 913.7 -0.7 30
2020-03-09 16:00:00 15.2 10 Noroeste 35 Noroeste 0 914 -1.2 33
2020-03-09 15:00:00 16.2 9 Noroeste 28 Noroeste 0 913.9 -1.7 33
2020-03-09 14:00:00 15 11 Noroeste 31 Noroeste 0 914.4 -0.8 36
2020-03-09 13:00:00 13.7 7 Norte 28 Norte 0 915.2 0.2 42
2020-03-09 12:00:00 11.8 11 Norte 40 Norte 0 915.6 0.6 51
2020-03-09 11:00:00 10 12 Norte 34 Norte 0 915.2 0.6 57
2020-03-09 10:00:00 8.3 8 Norte 27 Norte 0 915 0.8 64
2020-03-09 09:00:00 5.1 7 Norte 19 Norte 0 915 0.9 79
2020-03-09 08:00:00 3.7 3 Norte 13 Norte 0 914.6 0.9 86
2020-03-09 07:00:00 3.8 2 Norte 11 Nordeste 0 914.2 0.4 84
2020-03-09 06:00:00 4.1 2 Norte 14 Norte 0 914.1 -0.2 83
2020-03-09 05:00:00 4.6 6 Noroeste 13 Noroeste 0 913.7 -0.7 82
2020-03-09 04:00:00 5.1 4 Norte 12 Norte 0 913.8 -0.9 80
2020-03-09 03:00:00 6.1 2 Norte 13 Norte 0 914.3 -0.4 77
2020-03-09 02:00:00 7.1 4 Norte 16 Noroeste 0 914.4 -0.3 74
2020-03-09 01:00:00 7.4 6 Norte 14 Norte 0 914.7 0 74
2020-03-09 00:00:00 7.4 2 Noroeste 6 Norte 0 914.7 -0.1 65
2020-03-08 23:00:00 8.7 0 Calma 6 Noroeste 0 914.7 0.4 59
2020-03-08 22:00:00 10.1 2 Norte 9 Noroeste 0 914.7 0.4 52
2020-03-08 21:00:00 11 4 Oeste 12 Noroeste 0 914.8 0.8 46
2020-03-08 20:00:00 12.1 3 Norte 15 Noroeste 0 914.3 0.4 42
2020-03-08 19:00:00 13.5 5 Noroeste 24 Noroeste 0 914.3 0.7 41
2020-03-08 18:00:00 14.4 7 Noroeste 24 Noroeste 0 914 0.2 40
2020-03-08 17:00:00 16.3 6 Noroeste 25 Noroeste 0 913.9 -0.5 26
2020-03-08 16:00:00 17.2 11 Noroeste 24 Noroeste 0 913.6 -1.8 25
2020-03-08 15:00:00 17.4 6 Noroeste 21 Noroeste 0 913.8 -2 29
2020-03-08 14:00:00 16.2 8 Noroeste 25 Noroeste 0 914.4 -1.4 35
2020-03-08 13:00:00 14.6 6 Norte 23 Noroeste 0 915.4 -0.3 42
2020-03-08 12:00:00 13.2 8 Noroeste 23 Noroeste 0 915.8 0.3 52
2020-03-08 11:00:00 10.8 6 Noroeste 14 Oeste 0 915.8 0.6 60
2020-03-08 10:00:00 5.9 3 Sudoeste 5 Sur 0 915.7 0.8 73
2020-03-08 09:00:00 1.3 0 Calma 6 Oeste 0 915.5 0.7 89
2020-03-08 08:00:00 0.1 0 Calma 7 Norte 0 915.2 0.4 88
2020-03-08 07:00:00 0.7 0 Calma 5 Sudoeste 0 914.9 0.2 88
2020-03-08 06:00:00 1.4 2 Nordeste 10 Norte 0 914.8 0 85
2020-03-08 05:00:00 2.2 2 Noroeste 12 Norte 0 914.8 -0.7 82
2020-03-08 04:00:00 3.3 2 Sudoeste 8 Nordeste 0 914.7 -0.7 80
2020-03-08 03:00:00 4.8 3 Norte 11 Noroeste 0 914.8 -0.3 76
2020-03-08 02:00:00 5.7 5 Noroeste 12 Noroeste 0 915.5 -0.3 74
2020-03-08 01:00:00 6.1 6 Norte 25 Nordeste 0 915.4 0.2 73
2020-03-08 00:00:00 6.7 7 Norte 26 Noroeste 0 915.1 0.1 71
2020-03-07 23:00:00 7 7 Norte 19 Nordeste 0 915.8 0.9 71
2020-03-07 22:00:00 8 7 Norte 21 Norte 0 915.2 1 66
2020-03-07 21:00:00 9 6 Norte 17 Norte 0 915 1.7 62
2020-03-07 20:00:00 10.4 3 Norte 14 Noroeste 0 914.9 1.7 57
2020-03-07 19:00:00 12 6 Noroeste 23 Noroeste 0 914.2 0.9 50
2020-03-07 18:00:00 13.7 8 Noroeste 28 Noroeste 0 913.3 0.2 43
2020-03-07 17:00:00 14.3 9 Noroeste 33 Norte 0 913.2 -0.6 42
2020-03-07 16:00:00 14.8 8 Noroeste 34 Norte 0 913.3 -1.3 40
2020-03-07 15:00:00 14.5 9 Noroeste 33 Norte 0 913.1 -1.6 40
2020-03-07 14:00:00 12.6 8 Noroeste 28 Noroeste 0 913.8 -0.8 48
2020-03-07 13:00:00 10.8 9 Noroeste 28 Noroeste 0 914.6 0 52
2020-03-07 12:00:00 9.6 9 Noroeste 33 Noroeste 0 914.7 0.3 53
2020-03-07 11:00:00 8.3 9 Noroeste 30 Oeste 0 914.6 0.7 57
2020-03-07 10:00:00 5.8 5 Noroeste 18 Noroeste 0 914.6 1.5 61
2020-03-07 09:00:00 1.9 5 Noroeste 10 Noroeste 0 914.4 1.7 74
2020-03-07 08:00:00 0.7 4 Oeste 14 Noroeste 0 913.9 1.6 78
2020-03-07 07:00:00 0.5 6 Noroeste 17 Noroeste 0 913.1 0.7 78
2020-03-07 06:00:00 1 6 Noroeste 18 Noroeste 0 912.7 0.3 77
2020-03-07 05:00:00 2.3 5 Noroeste 21 Noroeste 0 912.3 0.1 68
2020-03-07 04:00:00 2.5 5 Noroeste 22 Noroeste 0 912.4 0.6 67
2020-03-07 03:00:00 2.9 7 Norte 29 Norte 0 912.4 0.5 66
2020-03-07 02:00:00 3.4 8 Noroeste 28 Noroeste 0 912.2 0.4 65
2020-03-07 01:00:00 4 10 Noroeste 35 Norte 0 911.8 0.5 61
2020-03-07 00:00:00 4.5 7 Noroeste 30 Oeste 0 911.9 1.4 59
2020-03-06 23:00:00 4.9 8 Norte 28 Norte 0 911.8 2 55
2020-03-06 22:00:00 5.3 6 Noroeste 24 Noroeste 0 911.3 2 49
2020-03-06 21:00:00 5.9 7 Noroeste 27 Norte 0 910.5 2.4 47
2020-03-06 20:00:00 6.7 8 Noroeste 33 Noroeste 0 909.8 2.7 42
2020-03-06 19:00:00 7.5 9 Noroeste 38 Noroeste 0 909.3 2.5 38
2020-03-06 18:00:00 9.3 13 Noroeste 49 Noroeste 0 908.1 1.6 38
2020-03-06 17:00:00 9.6 14 Noroeste 50 Noroeste 0 907.1 0.8 37
2020-03-06 16:00:00 10.1 18 Noroeste 52 Noroeste 0 906.8 0.4 38
2020-03-06 15:00:00 9.4 17 Noroeste 52 Noroeste 0 906.5 0.6 39
2020-03-06 14:00:00 10 18 Noroeste 53 Noroeste 0 906.3 0.5 40
2020-03-06 13:00:00 9.6 18 Noroeste 53 Noroeste 0 906.4 0.5 43
2020-03-06 12:00:00 8.4 15 Noroeste 54 Noroeste 0 905.9 0 45
2020-03-06 11:00:00 7.7 17 Noroeste 51 Noroeste 0 905.8 0.8 54
2020-03-06 10:00:00 5.9 13 Noroeste 34 Noroeste 0 905.9 1.1 71
2020-03-06 09:00:00 4.5 13 Noroeste 41 Noroeste 0 905.9 1 79
2020-03-06 08:00:00 4.6 10 Noroeste 27 Noroeste 0 905 -0.2 78
2020-03-06 07:00:00 4.4 9 Noroeste 19 Noroeste 0 904.8 -0.3 74
2020-03-06 06:00:00 3.8 6 Noroeste 14 Norte 0 904.9 -0.4 79
2020-03-06 05:00:00 4.2 6 Noroeste 20 Noroeste 0 905.2 0 78
2020-03-06 04:00:00 4.9 7 Noroeste 28 Noroeste 0 905.1 -0.2 74
2020-03-06 03:00:00 5.4 9 Noroeste 25 Noroeste 0 905.3 -0.1 74
2020-03-06 02:00:00 6 6 Noroeste 18 Noroeste 0 905.2 0.1 77
2020-03-06 01:00:00 6.2 4 Noroeste 21 Nordeste 0 905.3 0.4 79
2020-03-06 00:00:00 7 5 Noroeste 22 Noroeste 0 905.4 0.6 73
2020-03-05 23:00:00 7.9 6 Noroeste 24 Noroeste 0 905.1 0.2 75
2020-03-05 22:00:00 8.8 12 Noroeste 29 Noroeste 0 904.9 0.5 69
2020-03-05 21:00:00 8.5 4 Noroeste 12 Noroeste 0 904.8 1.1 63
2020-03-05 20:00:00 9.8 3 Noroeste 27 Oeste 0 904.9 1.5 58
2020-03-05 19:00:00 11.2 10 Noroeste 33 Noroeste 0 904.4 1.3 52
2020-03-05 18:00:00 12.9 12 Noroeste 41 Noroeste 0 903.7 0.7 47
2020-03-05 17:00:00 12.2 17 Noroeste 40 Norte 0 903.4 0.1 49
2020-03-05 16:00:00 13.1 11 Noroeste 39 Noroeste 0 903.1 -0.9 62
2020-03-05 15:00:00 10.7 17 Noroeste 39 Noroeste 0.6 903 -1.5 90
2020-03-05 14:00:00 9.8 14 Oeste 32 Sudoeste 0.2 903.3 -1.5 93
2020-03-05 13:00:00 9.8 13 Oeste 39 Sudoeste 0 904 -1.1 92
2020-03-05 12:00:00 10.8 13 Oeste 30 Oeste 0 904.5 -0.6 78
2020-03-05 11:00:00 10.3 7 Oeste 26 Noroeste 0 904.8 -0.1 79
2020-03-05 10:00:00 10 14 Oeste 47 Oeste 0.2 905.1 -0.4 80
2020-03-05 09:00:00 9.4 8 Oeste 21 Oeste 0 905.1 -0.9 86
2020-03-05 08:00:00 9 7 Oeste 14 Oeste 0 904.9 -1.5 89
2020-03-05 07:00:00 9 5 Oeste 24 Oeste 0 905.5 -1.5 91
2020-03-05 06:00:00 9.1 6 Oeste 19 Noroeste 0 906 -1.9 89
2020-03-05 05:00:00 9 6 Noroeste 14 Noroeste 0 906.4 -2.4 89
2020-03-05 04:00:00 8.9 4 Noroeste 11 Noroeste 0 907 -2 89
2020-03-05 03:00:00 9 6 Noroeste 12 Noroeste 0 907.9 -1.7 88
2020-03-05 02:00:00 8.6 2 Oeste 8 Noroeste 0 908.8 -1.2 87
2020-03-05 01:00:00 9 2 Oeste 8 Norte 0 909 -1.5 84
2020-03-05 00:00:00 9.8 3 Noroeste 11 Oeste 0 909.6 -0.8 82